createdAt,value
2023-01-06T00:00:41.484Z,10.21
2023-01-06T00:03:13.613Z,10.17
2023-01-06T00:05:45.571Z,10.14
2023-01-06T00:08:17.571Z,10.07
2023-01-06T00:10:49.490Z,10.03
2023-01-06T00:13:22.119Z,9.99
2023-01-06T00:15:55.571Z,9.97
2023-01-06T00:18:27.646Z,10.02
2023-01-06T00:21:01.564Z,10.07
2023-01-06T00:23:34.902Z,10.12
2023-01-06T00:26:09.170Z,10.10
2023-01-06T00:28:41.239Z,10.09
2023-01-06T00:31:16.174Z,10.14
2023-01-06T00:33:48.412Z,10.08
2023-01-06T00:36:21.846Z,10.12
2023-01-06T00:38:53.978Z,10.20
2023-01-06T00:41:44.301Z,10.20
2023-01-06T00:44:16.142Z,10.04
2023-01-06T00:46:48.187Z,10.06
2023-01-06T00:49:20.150Z,10.11
2023-01-06T00:51:52.750Z,10.09
2023-01-06T00:54:24.916Z,10.17
2023-01-06T00:56:57.011Z,10.21
2023-01-06T00:59:29.195Z,10.21
2023-01-06T01:02:01.885Z,10.21
2023-01-06T01:04:35.743Z,10.11
2023-01-06T01:07:08.245Z,10.18
2023-01-06T01:09:40.182Z,10.22
2023-01-06T01:12:12.757Z,10.28
2023-01-06T01:14:51.336Z,10.33
2023-01-06T01:17:27.724Z,10.34
2023-01-06T01:20:01.189Z,10.38
2023-01-06T01:22:33.320Z,10.35
2023-01-06T01:25:05.899Z,10.31
2023-01-06T01:27:37.835Z,10.33
2023-01-06T01:30:10.477Z,10.40
2023-01-06T01:32:42.396Z,10.34
2023-01-06T01:35:14.767Z,10.40
2023-01-06T01:37:46.679Z,10.44
2023-01-06T01:40:18.612Z,10.36
2023-01-06T01:42:50.545Z,10.31
2023-01-06T01:45:27.346Z,10.37
2023-01-06T01:48:13.744Z,10.48
2023-01-06T01:50:51.980Z,10.51
2023-01-06T01:53:29.146Z,10.48
2023-01-06T01:56:07.334Z,10.52
2023-01-06T01:58:46.553Z,10.48
2023-01-06T02:01:18.884Z,10.46
2023-01-06T02:03:51.870Z,10.45
2023-01-06T02:06:26.014Z,10.45
2023-01-06T02:09:24.752Z,10.42
2023-01-06T02:11:57.945Z,10.43
2023-01-06T02:14:30.397Z,10.42
2023-01-06T02:17:16.942Z,10.48
2023-01-06T02:20:16.108Z,10.48
2023-01-06T02:23:23.038Z,10.44
2023-01-06T02:26:38.658Z,10.41
2023-01-06T02:29:30.650Z,10.44
2023-01-06T02:32:40.976Z,10.45
2023-01-06T02:35:48.397Z,10.47
2023-01-06T02:38:44.827Z,10.45
2023-01-06T02:41:33.906Z,10.55
2023-01-06T02:44:36.489Z,10.51
2023-01-06T02:47:35.126Z,10.64
2023-01-06T02:50:14.750Z,10.53
2023-01-06T02:53:21.351Z,10.59
2023-01-06T02:55:56.646Z,10.58
2023-01-06T02:58:51.425Z,10.65
2023-01-06T03:01:43.441Z,10.68
2023-01-06T03:04:25.367Z,10.65
2023-01-06T03:06:59.563Z,10.61
2023-01-06T03:09:37.687Z,10.61
2023-01-06T03:12:31.130Z,10.72
2023-01-06T03:15:03.443Z,10.72
2023-01-06T03:17:35.627Z,10.76
2023-01-06T03:20:08.793Z,10.74
2023-01-06T03:22:41.862Z,10.59
2023-01-06T03:25:15.136Z,10.67
2023-01-06T03:27:47.208Z,10.66
2023-01-06T03:30:19.587Z,10.68
2023-01-06T03:33:08.620Z,10.61
2023-01-06T03:35:58.651Z,10.51
2023-01-06T03:38:45.759Z,10.57
2023-01-06T03:41:58.678Z,10.51
2023-01-06T03:44:42.889Z,10.53
2023-01-06T03:47:50.283Z,10.60
2023-01-06T03:50:32.885Z,10.63
2023-01-06T03:53:29.122Z,10.56
2023-01-06T03:56:33.728Z,10.53
2023-01-06T03:59:11.410Z,10.58
2023-01-06T04:01:44.467Z,10.56
2023-01-06T04:04:18.477Z,10.48
2023-01-06T04:06:50.451Z,10.50
2023-01-06T04:09:22.749Z,10.45
2023-01-06T04:12:13.365Z,10.45
2023-01-06T04:14:45.322Z,10.48
2023-01-06T04:17:17.276Z,10.56
2023-01-06T04:19:49.188Z,10.53
2023-01-06T04:22:21.147Z,10.51
2023-01-06T04:24:53.199Z,10.65
2023-01-06T04:27:25.324Z,10.67
2023-01-06T04:29:57.270Z,10.69
2023-01-06T04:32:29.261Z,10.73
2023-01-06T04:35:01.210Z,10.78
2023-01-06T04:37:34.025Z,10.75
2023-01-06T04:40:07.846Z,10.74
2023-01-06T04:42:58.085Z,10.67
2023-01-06T04:45:30.105Z,10.61
2023-01-06T04:48:02.233Z,10.63
2023-01-06T04:50:34.620Z,10.63
2023-01-06T04:53:07.636Z,10.56
2023-01-06T04:55:41.056Z,10.58
2023-01-06T04:58:13.090Z,10.61
2023-01-06T05:00:45.081Z,10.61
2023-01-06T05:03:17.063Z,10.66
2023-01-06T05:05:49.003Z,10.63
2023-01-06T05:08:21.258Z,10.59
2023-01-06T05:11:04.284Z,10.60
2023-01-06T05:13:36.879Z,10.66
2023-01-06T05:16:15.094Z,10.66
2023-01-06T05:18:47.251Z,10.69
2023-01-06T05:21:19.207Z,10.64
2023-01-06T05:23:52.351Z,10.76
2023-01-06T05:26:27.672Z,10.73
2023-01-06T05:28:59.635Z,10.71
2023-01-06T05:31:31.650Z,10.65
2023-01-06T05:34:03.615Z,10.77
2023-01-06T05:36:35.541Z,10.77
2023-01-06T05:39:07.494Z,10.81
2023-01-06T05:41:39.471Z,10.90
2023-01-06T05:44:11.471Z,10.88
2023-01-06T05:46:43.648Z,10.87
2023-01-06T05:49:15.785Z,10.85
2023-01-06T05:51:48.389Z,10.77
2023-01-06T05:54:20.335Z,10.75
2023-01-06T05:56:52.243Z,10.78
2023-01-06T05:59:24.173Z,10.82
2023-01-06T06:01:56.120Z,10.87
2023-01-06T06:04:28.094Z,10.89
2023-01-06T06:07:00.045Z,10.86
2023-01-06T06:09:31.980Z,10.90
2023-01-06T06:12:04.202Z,10.90
2023-01-06T06:14:36.207Z,10.92
2023-01-06T06:17:08.136Z,10.75
2023-01-06T06:19:40.074Z,10.66
2023-01-06T06:22:12.040Z,10.67
2023-01-06T06:24:44.001Z,10.75
2023-01-06T06:27:15.997Z,10.81
2023-01-06T06:29:47.981Z,10.85
2023-01-06T06:32:19.924Z,10.79
2023-01-06T06:34:51.874Z,10.72
2023-01-06T06:37:23.818Z,10.78
2023-01-06T06:39:55.737Z,10.83
2023-01-06T06:42:27.683Z,10.86
2023-01-06T06:44:59.630Z,10.70
2023-01-06T06:47:31.560Z,10.73
2023-01-06T06:50:03.811Z,10.77
2023-01-06T06:52:35.771Z,10.79
2023-01-06T06:55:08.356Z,10.83
2023-01-06T06:57:40.674Z,10.83
2023-01-06T07:00:13.608Z,10.85
2023-01-06T07:02:49.386Z,10.70
2023-01-06T07:05:21.367Z,10.71
2023-01-06T07:07:53.309Z,10.78
2023-01-06T07:10:25.302Z,10.78
2023-01-06T07:12:57.214Z,10.76
2023-01-06T07:15:29.354Z,10.76
2023-01-06T07:18:06.626Z,10.85
2023-01-06T07:20:39.504Z,10.92
2023-01-06T07:23:11.427Z,10.73
2023-01-06T07:25:43.455Z,10.67
2023-01-06T07:28:15.428Z,10.61
2023-01-06T07:30:47.731Z,10.59
2023-01-06T07:33:20.721Z,10.52
2023-01-06T07:35:55.612Z,10.75
2023-01-06T07:38:27.574Z,10.82
2023-01-06T07:41:01.584Z,10.82
2023-01-06T07:43:33.521Z,10.84
2023-01-06T07:46:05.619Z,10.84
2023-01-06T07:48:37.850Z,10.84
2023-01-06T07:51:09.850Z,10.75
2023-01-06T07:53:41.950Z,10.78
2023-01-06T07:56:14.644Z,10.74
2023-01-06T07:58:46.648Z,10.67
2023-01-06T08:01:18.718Z,10.49
2023-01-06T08:03:50.732Z,10.30
2023-01-06T08:06:22.748Z,10.27
2023-01-06T08:08:54.849Z,10.21
2023-01-06T08:11:26.862Z,10.17
2023-01-06T08:13:58.787Z,10.20
2023-01-06T08:16:30.733Z,10.29
2023-01-06T08:19:05.103Z,10.39
2023-01-06T08:21:37.049Z,10.32
2023-01-06T08:24:09.168Z,10.22
2023-01-06T08:26:41.518Z,10.31
2023-01-06T08:29:13.561Z,10.32
2023-01-06T08:31:45.597Z,10.22
2023-01-06T08:34:17.994Z,10.20
2023-01-06T08:36:50.102Z,10.24
2023-01-06T08:39:22.087Z,10.17
2023-01-06T08:41:54.530Z,10.11
2023-01-06T08:44:26.490Z,10.05
2023-01-06T08:46:58.519Z,10.06
2023-01-06T08:49:30.532Z,10.05
2023-01-06T08:52:02.503Z,9.95
2023-01-06T08:54:34.474Z,9.96
2023-01-06T08:57:08.385Z,9.92
2023-01-06T08:59:40.310Z,9.91
2023-01-06T09:02:12.649Z,9.98
2023-01-06T09:04:44.771Z,9.95
2023-01-06T09:07:16.841Z,9.92
2023-01-06T09:09:48.836Z,9.98
2023-01-06T09:12:21.278Z,9.99
2023-01-06T09:14:53.351Z,9.90
2023-01-06T09:17:25.517Z,9.94
2023-01-06T09:19:57.553Z,9.99
2023-01-06T09:22:29.570Z,9.91
2023-01-06T09:25:01.519Z,9.99
2023-01-06T09:27:33.468Z,9.97
2023-01-06T09:30:07.142Z,10.00
2023-01-06T09:32:39.086Z,9.91
2023-01-06T09:35:11.301Z,9.94
2023-01-06T09:37:43.259Z,10.03
2023-01-06T09:40:18.779Z,10.10
2023-01-06T09:43:15.980Z,10.16
2023-01-06T09:45:54.094Z,10.17
2023-01-06T09:48:33.880Z,10.25
2023-01-06T09:51:07.487Z,10.16
2023-01-06T09:53:50.400Z,10.17
2023-01-06T09:56:25.227Z,10.11
2023-01-06T09:59:13.137Z,10.18
2023-01-06T10:01:50.721Z,10.18
2023-01-06T10:04:29.607Z,10.22
2023-01-06T10:07:17.673Z,10.33
2023-01-06T10:10:18.875Z,10.24
2023-01-06T10:13:10.170Z,10.36
2023-01-06T10:16:11.315Z,10.46
2023-01-06T10:18:59.696Z,10.49
2023-01-06T10:22:01.524Z,10.64
2023-01-06T10:25:19.513Z,11.03
2023-01-06T10:28:12.553Z,11.24
2023-01-06T10:30:52.729Z,11.39
2023-01-06T10:33:34.113Z,11.32
2023-01-06T10:36:14.154Z,11.23
2023-01-06T10:38:50.147Z,11.27
2023-01-06T10:41:51.017Z,11.38
2023-01-06T10:44:23.815Z,11.42
2023-01-06T10:46:55.861Z,11.68
2023-01-06T10:49:27.901Z,11.69
2023-01-06T10:52:03.514Z,11.52
2023-01-06T10:54:39.000Z,11.42
2023-01-06T10:57:37.184Z,11.32
2023-01-06T11:00:14.883Z,11.34
2023-01-06T11:02:51.059Z,11.26
2023-01-06T11:05:26.230Z,11.17
2023-01-06T11:08:12.906Z,11.03
2023-01-06T11:10:50.807Z,10.94
2023-01-06T11:13:36.625Z,10.93
2023-01-06T11:16:21.936Z,10.79
2023-01-06T11:19:25.474Z,10.92
2023-01-06T11:21:57.440Z,10.93
2023-01-06T11:24:30.641Z,10.99
2023-01-06T11:27:16.677Z,11.00
2023-01-06T11:29:48.787Z,11.01
2023-01-06T11:32:28.176Z,11.01
2023-01-06T11:35:05.387Z,11.02
2023-01-06T11:37:42.909Z,11.05
2023-01-06T11:40:33.851Z,11.33
2023-01-06T11:43:16.880Z,11.58
2023-01-06T11:46:04.800Z,11.69
2023-01-06T11:48:43.858Z,11.71
2023-01-06T11:51:32.118Z,11.70
2023-01-06T11:54:22.427Z,11.72
2023-01-06T11:57:21.955Z,11.65
2023-01-06T12:00:27.155Z,11.48
2023-01-06T12:03:25.477Z,11.28
2023-01-06T12:06:32.479Z,11.05
2023-01-06T12:09:14.669Z,10.95
2023-01-06T12:11:50.448Z,10.83
2023-01-06T12:14:31.052Z,10.82
2023-01-06T12:17:32.977Z,10.75
2023-01-06T12:20:23.284Z,10.71
2023-01-06T12:23:03.083Z,10.72
2023-01-06T12:25:45.336Z,10.74
2023-01-06T12:28:39.779Z,10.86
2023-01-06T12:31:42.251Z,10.93
2023-01-06T12:34:24.696Z,10.95
2023-01-06T12:37:16.742Z,11.10
2023-01-06T12:40:05.688Z,11.16
2023-01-06T12:43:12.557Z,11.11
2023-01-06T12:46:01.220Z,11.06
2023-01-06T12:48:45.688Z,11.11
2023-01-06T12:51:44.590Z,11.03
2023-01-06T12:54:31.332Z,11.05
2023-01-06T12:57:18.380Z,10.99
2023-01-06T13:00:18.151Z,10.91
2023-01-06T13:03:19.526Z,11.00
2023-01-06T13:06:07.021Z,11.02
2023-01-06T13:09:19.154Z,11.05
2023-01-06T13:12:41.894Z,10.79
2023-01-06T13:15:29.601Z,10.62
2023-01-06T13:18:19.426Z,10.58
2023-01-06T13:20:59.094Z,10.65
2023-01-06T13:24:00.265Z,10.65
2023-01-06T13:27:04.855Z,10.70
2023-01-06T13:30:10.288Z,10.74
2023-01-06T13:33:22.035Z,10.71
2023-01-06T13:36:22.671Z,10.64
2023-01-06T13:39:25.925Z,10.66
2023-01-06T13:42:00.912Z,10.66
2023-01-06T13:44:38.165Z,10.65
2023-01-06T13:47:17.659Z,10.71
2023-01-06T13:49:50.978Z,10.69
2023-01-06T13:52:30.485Z,10.77
2023-01-06T13:55:26.184Z,10.52
2023-01-06T13:58:24.418Z,10.58
2023-01-06T14:01:21.114Z,10.52
2023-01-06T14:03:53.211Z,10.68
2023-01-06T14:06:25.244Z,10.71
2023-01-06T14:09:00.571Z,10.79
2023-01-06T14:11:37.796Z,10.92
2023-01-06T14:14:29.620Z,10.79
2023-01-06T14:17:01.751Z,10.85
2023-01-06T14:19:38.743Z,10.85
2023-01-06T14:22:18.858Z,10.65
2023-01-06T14:24:55.295Z,10.56
2023-01-06T14:27:46.285Z,10.60
2023-01-06T14:30:34.802Z,10.53
2023-01-06T14:33:35.545Z,10.57
2023-01-06T14:36:15.429Z,10.41
2023-01-06T14:38:52.585Z,10.50
2023-01-06T14:41:43.414Z,10.57
2023-01-06T14:44:47.269Z,10.48
2023-01-06T14:47:38.676Z,10.42
2023-01-06T14:50:18.454Z,10.45
2023-01-06T14:53:26.391Z,10.46
2023-01-06T14:56:00.242Z,10.33
2023-01-06T14:58:36.669Z,10.40
2023-01-06T15:01:33.767Z,10.38
2023-01-06T15:04:07.668Z,10.26
2023-01-06T15:06:39.772Z,10.24
2023-01-06T15:09:22.165Z,10.21
2023-01-06T15:11:54.630Z,10.16
2023-01-06T15:14:29.075Z,10.12
2023-01-06T15:17:07.639Z,10.12
2023-01-06T15:19:44.348Z,10.02
2023-01-06T15:22:25.344Z,10.04
2023-01-06T15:24:57.536Z,10.15
2023-01-06T15:27:29.586Z,10.19
2023-01-06T15:30:01.590Z,10.21
2023-01-06T15:32:34.912Z,10.10
2023-01-06T15:35:12.635Z,10.11
2023-01-06T15:37:47.061Z,10.09
2023-01-06T15:40:21.789Z,9.90
2023-01-06T15:42:53.778Z,9.77
2023-01-06T15:45:35.195Z,9.74
2023-01-06T15:48:21.379Z,9.82
2023-01-06T15:50:53.525Z,9.85
2023-01-06T15:53:32.701Z,9.83
2023-01-06T15:56:06.203Z,9.85
2023-01-06T15:58:39.952Z,9.80
2023-01-06T16:01:16.041Z,9.94
2023-01-06T16:03:53.711Z,9.89
2023-01-06T16:06:40.827Z,9.82
2023-01-06T16:09:30.698Z,9.74
2023-01-06T16:12:18.117Z,9.69
2023-01-06T16:14:50.453Z,9.69
2023-01-06T16:17:33.579Z,9.76
2023-01-06T16:20:22.104Z,9.69
2023-01-06T16:22:55.724Z,9.74
2023-01-06T16:25:32.501Z,9.64
2023-01-06T16:28:20.770Z,9.53
2023-01-06T16:31:12.605Z,9.60
2023-01-06T16:33:48.363Z,9.44
2023-01-06T16:36:21.233Z,9.48
2023-01-06T16:38:53.174Z,9.46
2023-01-06T16:41:25.162Z,9.51
2023-01-06T16:43:57.103Z,9.47
2023-01-06T16:46:30.182Z,9.46
2023-01-06T16:49:09.777Z,9.46
2023-01-06T16:51:45.698Z,9.38
2023-01-06T16:54:18.775Z,9.38
2023-01-06T16:56:52.281Z,9.39
2023-01-06T16:59:25.728Z,9.32
2023-01-06T17:01:57.820Z,9.27
2023-01-06T17:04:30.003Z,9.37
2023-01-06T17:07:05.708Z,9.33
2023-01-06T17:09:37.728Z,9.37
2023-01-06T17:12:37.486Z,9.31
2023-01-06T17:15:12.588Z,9.26
2023-01-06T17:17:44.634Z,9.28
2023-01-06T17:20:17.073Z,9.28
2023-01-06T17:22:51.372Z,9.18
2023-01-06T17:25:23.963Z,9.24
2023-01-06T17:27:56.050Z,9.14
2023-01-06T17:30:28.110Z,9.18
2023-01-06T17:33:00.144Z,9.24
2023-01-06T17:35:32.523Z,9.18
2023-01-06T17:38:25.923Z,9.16
2023-01-06T17:40:58.305Z,9.23
2023-01-06T17:43:33.773Z,9.16
2023-01-06T17:46:36.015Z,9.17
2023-01-06T17:49:31.352Z,9.17
2023-01-06T17:52:22.247Z,9.16
2023-01-06T17:55:17.250Z,9.18
2023-01-06T17:57:49.445Z,9.11
2023-01-06T18:00:34.503Z,9.25
2023-01-06T18:03:12.863Z,9.29
2023-01-06T18:05:45.191Z,9.33
2023-01-06T18:08:18.060Z,9.35
2023-01-06T18:11:05.472Z,9.37
2023-01-06T18:13:40.209Z,9.40
2023-01-06T18:16:33.102Z,9.32
2023-01-06T18:19:31.642Z,9.25
2023-01-06T18:22:25.486Z,9.31
2023-01-06T18:25:00.733Z,9.33
2023-01-06T18:27:34.825Z,9.31
2023-01-06T18:30:23.115Z,9.25
2023-01-06T18:32:59.091Z,9.16
2023-01-06T18:35:31.056Z,9.27
2023-01-06T18:38:06.212Z,9.32
2023-01-06T18:40:39.599Z,9.35
2023-01-06T18:43:28.033Z,9.33
2023-01-06T18:46:02.587Z,9.41
2023-01-06T18:48:34.950Z,9.34
2023-01-06T18:51:22.813Z,9.28
2023-01-06T18:53:54.796Z,9.31
2023-01-06T18:56:27.210Z,9.26
2023-01-06T18:59:00.217Z,9.20
2023-01-06T19:01:49.366Z,9.09
2023-01-06T19:04:33.039Z,9.07
2023-01-06T19:07:28.971Z,9.06
2023-01-06T19:10:01.984Z,8.95
2023-01-06T19:12:39.225Z,8.93
2023-01-06T19:15:25.486Z,8.94
2023-01-06T19:17:57.457Z,8.95
2023-01-06T19:20:35.172Z,8.88
2023-01-06T19:23:20.072Z,8.87
2023-01-06T19:26:21.512Z,8.84
2023-01-06T19:29:01.816Z,8.82
2023-01-06T19:31:33.780Z,8.78
2023-01-06T19:34:14.710Z,8.71
2023-01-06T19:36:52.606Z,8.65
2023-01-06T19:39:30.839Z,8.62
2023-01-06T19:42:08.374Z,8.54
2023-01-06T19:44:41.244Z,8.51
2023-01-06T19:47:24.403Z,8.44
2023-01-06T19:50:00.917Z,8.46
2023-01-06T19:52:39.615Z,8.39
2023-01-06T19:55:29.276Z,8.31
2023-01-06T19:58:13.004Z,8.30
2023-01-06T20:00:54.411Z,8.24
2023-01-06T20:03:38.743Z,8.22
2023-01-06T20:06:11.024Z,8.24
2023-01-06T20:08:44.085Z,8.22
2023-01-06T20:11:16.559Z,8.17
2023-01-06T20:13:49.127Z,8.13
2023-01-06T20:16:21.824Z,8.14
2023-01-06T20:18:53.871Z,8.14
2023-01-06T20:21:25.867Z,8.13
2023-01-06T20:23:58.570Z,8.12
2023-01-06T20:26:30.559Z,8.09
2023-01-06T20:29:04.507Z,8.08
2023-01-06T20:31:36.691Z,8.07
2023-01-06T20:34:08.683Z,8.02
2023-01-06T20:36:41.033Z,7.98
2023-01-06T20:39:15.211Z,7.95
2023-01-06T20:41:47.248Z,7.99
2023-01-06T20:44:19.269Z,7.97
2023-01-06T20:46:51.236Z,7.90
2023-01-06T20:49:23.249Z,7.91
2023-01-06T20:51:55.692Z,7.91
2023-01-06T20:54:27.678Z,7.93
2023-01-06T20:56:59.681Z,7.95
2023-01-06T20:59:31.782Z,7.87
2023-01-06T21:02:04.457Z,7.89
2023-01-06T21:04:36.602Z,7.85
2023-01-06T21:07:08.897Z,7.88
2023-01-06T21:09:40.942Z,7.88
2023-01-06T21:12:12.956Z,7.89
2023-01-06T21:14:45.015Z,7.86
2023-01-06T21:17:17.004Z,7.86
2023-01-06T21:19:51.725Z,7.79
2023-01-06T21:22:23.758Z,7.79
2023-01-06T21:24:55.848Z,7.83
2023-01-06T21:27:27.803Z,7.85
2023-01-06T21:29:59.763Z,7.85
2023-01-06T21:32:31.804Z,7.84
2023-01-06T21:35:04.133Z,7.85
2023-01-06T21:37:36.425Z,7.80
2023-01-06T21:40:09.656Z,7.82
2023-01-06T21:43:00.475Z,7.81
2023-01-06T21:45:32.654Z,7.85
2023-01-06T21:48:05.934Z,7.82
2023-01-06T21:50:43.062Z,7.86
2023-01-06T21:53:15.120Z,7.85
2023-01-06T21:55:47.102Z,7.80
2023-01-06T21:58:19.462Z,7.81
2023-01-06T22:00:51.580Z,7.72
2023-01-06T22:03:23.698Z,7.78
2023-01-06T22:05:56.849Z,7.80
2023-01-06T22:08:31.595Z,7.78
2023-01-06T22:11:04.747Z,7.80
2023-01-06T22:13:39.659Z,7.81
2023-01-06T22:16:12.377Z,7.77
2023-01-06T22:18:44.459Z,7.76
2023-01-06T22:21:17.111Z,7.74
2023-01-06T22:23:50.533Z,7.74
2023-01-06T22:26:22.684Z,7.71
2023-01-06T22:28:54.662Z,7.69
2023-01-06T22:31:26.712Z,7.67
2023-01-06T22:33:58.705Z,7.69
2023-01-06T22:36:30.911Z,7.70
2023-01-06T22:39:03.163Z,7.71
2023-01-06T22:41:35.374Z,7.69
2023-01-06T22:44:07.512Z,7.61
2023-01-06T22:46:41.208Z,7.62
2023-01-06T22:49:13.314Z,7.66
2023-01-06T22:51:45.789Z,7.64
2023-01-06T22:54:17.962Z,7.63
2023-01-06T22:56:49.939Z,7.61
2023-01-06T22:59:21.979Z,7.60
2023-01-06T23:01:54.414Z,7.58
2023-01-06T23:04:26.688Z,7.56
2023-01-06T23:06:58.727Z,7.49
2023-01-06T23:09:30.678Z,7.46
2023-01-06T23:12:02.684Z,7.45
2023-01-06T23:14:34.746Z,7.53
2023-01-06T23:17:06.758Z,7.59
2023-01-06T23:19:38.776Z,7.70
2023-01-06T23:22:10.809Z,7.75
2023-01-06T23:24:42.919Z,7.84
2023-01-06T23:27:15.225Z,7.90
2023-01-06T23:29:47.257Z,7.87
2023-01-06T23:32:20.378Z,7.97
2023-01-06T23:34:52.338Z,8.07
2023-01-06T23:37:24.333Z,8.11
2023-01-06T23:39:56.303Z,8.18
2023-01-06T23:42:28.725Z,8.24
2023-01-06T23:45:05.123Z,8.22
2023-01-06T23:47:37.133Z,8.30
2023-01-06T23:50:09.568Z,8.31
2023-01-06T23:52:41.594Z,8.32
2023-01-06T23:55:13.538Z,8.37
2023-01-06T23:57:45.499Z,8.40
